ADDS METAR Data INFO
IDs: Format: Raw Decoded Include TAF

Data at: 2112 UTC 19 Jul 2018

KHHW 192055Z AUTO 22009KT 10SM CLR 42/17 A2981 RMK AO2 T04210169
KHHW 192035Z AUTO 20010KT 150V230 10SM CLR 42/17 A2981 RMK AO2 T04170172
KHHW 192015Z AUTO 22011G17KT 10SM CLR 41/18 A2982 RMK AO2 T04130179
KHHW 191955Z AUTO 23008KT 10SM CLR 41/19 A2982 RMK AO2 T04120188
KHHW 191935Z AUTO 24009KT 10SM CLR 41/20 A2982 RMK AO2 T04050198
KHHW 191915Z AUTO 21005KT 10SM CLR 40/20 A2983 RMK AO2 T03970200
KHHW 191855Z AUTO 24004KT 10SM CLR 39/20 A2984 RMK AO2 T03940201
KHHW 191835Z AUTO 19009KT 10SM CLR 39/20 A2985 RMK AO2 T03880200
KHHW 191815Z AUTO 24006KT 10SM CLR 39/20 A2985 RMK AO2 T03870201
KHHW 191755Z AUTO 23007KT 10SM CLR 38/20 A2986 RMK AO2 T03790200 10383 20250
KHHW 191735Z AUTO 20008G15KT 10SM CLR 38/20 A2987 RMK AO2 T03780204
KHHW 191715Z AUTO 22010KT 10SM CLR 37/20 A2987 RMK AO2 T03690201
KHHW 191655Z AUTO 20006KT 10SM CLR 37/21 A2988 RMK AO2 T03700212
KHHW 191635Z AUTO 23006KT 10SM CLR 35/21 A2988 RMK AO2 T03530212
KHHW 191615Z AUTO 21008KT 10SM CLR 35/21 A2988 RMK AO2 T03530211
KHHW 191555Z AUTO 22007KT 190V250 10SM CLR 34/21 A2989 RMK AO2 T03380212
KHHW 191535Z AUTO 22007KT 10SM CLR 34/21 A2990 RMK AO2 T03380211
KHHW 191515Z AUTO 24005KT 10SM CLR 33/21 A2990 RMK AO2 T03290210
KHHW 191455Z AUTO 20006KT 10SM CLR 32/22 A2990 RMK AO2 T03240216
KHHW 191435Z AUTO 22005KT 10SM CLR 32/22 A2991 RMK AO2 T03150218
KHHW 191415Z AUTO 17006KT 10SM CLR 31/22 A2991 RMK AO2 T03050218
KHHW 191355Z AUTO 16006KT 10SM CLR 30/22 A2991 RMK AO2 T03020219
KHHW 191335Z AUTO 16004KT 10SM CLR 29/22 A2991 RMK AO2 T02920223
KHHW 191315Z AUTO 15005KT 10SM CLR 28/23 A2991 RMK AO2 T02810229
KHHW 191255Z AUTO 00000KT 10SM CLR 27/23 A2991 RMK AO2 T02700234
KHHW 191235Z AUTO 13003KT 10SM CLR 26/24 A2990 RMK AO2 T02580235
KHHW 191215Z AUTO 11003KT 7SM CLR 25/23 A2990 RMK AO2 T02520233
KHHW 191155Z AUTO 11003KT 7SM CLR 25/23 A2990 RMK AO2 7//// T02500231 10272 20248
KHHW 191135Z AUTO 09003KT 7SM CLR 25/23 A2990 RMK AO2 T02500230
KHHW 191115Z AUTO 11003KT 7SM CLR 25/23 A2989 RMK AO2 T02500230
KHHW 191055Z AUTO 13003KT 10SM CLR 25/23 A2988 RMK AO2 T02480230
KHHW 191035Z AUTO 12003KT 10SM CLR 25/23 A2988 RMK AO2 T02500230
KHHW 191015Z AUTO 12004KT 10SM CLR 25/23 A2988 RMK AO2 T02500230
KHHW 190955Z AUTO 00000KT 10SM CLR 25/23 A2988 RMK AO2 T02510231
KHHW 190935Z AUTO 12003KT 10SM CLR 25/23 A2988 RMK AO2 T02540231
KHHW 190915Z AUTO 13003KT 5SM BR CLR 26/23 A2988 RMK AO2 T02550233
KHHW 190855Z AUTO 00000KT 10SM CLR 26/23 A2987 RMK AO2 T02560234
KHHW 190835Z AUTO 00000KT 10SM CLR 26/24 A2988 RMK AO2 T02550235
KHHW 190815Z AUTO 11003KT 10SM CLR 26/24 A2987 RMK AO2 T02570235
KHHW 190755Z AUTO 09003KT 10SM CLR 26/24 A2987 RMK AO2 T02630236
KHHW 190735Z AUTO 00000KT 7SM CLR 27/24 A2987 RMK AO2 T02650237
KHHW 190715Z AUTO 09003KT 7SM CLR 27/24 A2987 RMK AO2 T02650238
KHHW 190655Z AUTO 10003KT 7SM CLR 27/24 A2987 RMK AO2 T02660237
KHHW 190635Z AUTO 10003KT 10SM CLR 27/24 A2988 RMK AO2 T02670240
KHHW 190615Z AUTO 10003KT 10SM CLR 27/24 A2988 RMK AO2 T02700240
KHHW 190555Z AUTO 00000KT 10SM CLR 27/24 A2988 RMK AO2 6//// T02720240
KHHW 190535Z AUTO 10003KT 10SM CLR 28/24 A2988 RMK AO2 T02750241
KHHW 190515Z AUTO 00000KT 10SM CLR 28/24 A2988 RMK AO2 T02750242
KHHW 190455Z AUTO 10003KT 10SM CLR 28/24 A2988 RMK AO2 T02770243
KHHW 190435Z AUTO 08003KT 10SM CLR 28/25 A2988 RMK AO2 T02810245
KHHW 190415Z AUTO 09004KT 10SM CLR 28/25 A2988 RMK AO2 T02840245
KHHW 190355Z AUTO 08004KT 10SM CLR 29/25 A2988 RMK AO2 T02860245
KHHW 190335Z AUTO 09006KT 10SM CLR 29/24 A2988 RMK AO2 T02900243
KHHW 190315Z AUTO 08004KT 10SM CLR 29/24 A2988 RMK AO2 T02910241
KHHW 190255Z AUTO 08004KT 10SM CLR 29/24 A2987 RMK AO2 6//// T02930240
KHHW 190235Z AUTO 10003KT 10SM CLR 30/24 A2986 RMK AO2 T02970240
KHHW 190215Z AUTO 09004KT 30/24 A2986 RMK AO2 T03020240 PWINO
KHHW 190115Z AUTO 09004KT 10SM CLR 32/24 A2986 RMK AO2 T03220235
KHHW 190055Z AUTO 09006KT 10SM CLR 33/24 A2986 RMK AO2 T03270235
KHHW 190035Z AUTO 11007KT 10SM CLR 33/23 A2986 RMK AO2 T03290233
KHHW 190015Z AUTO 11010KT 10SM CLR 33/23 A2986 RMK AO2 T03310232
KHHW 182355Z AUTO 11008KT 10SM CLR 34/23 A2986 RMK AO2 T03380229 10375 20336
KHHW 182335Z AUTO 11007KT 10SM CLR 34/23 A2986 RMK AO2 T03400226
KHHW 182315Z AUTO 11008KT 10SM CLR 35/22 A2987 RMK AO2 T03450221
KHHW 182255Z AUTO 11008KT 10SM CLR 35/22 A2987 RMK AO2 T03520221
KHHW 182235Z AUTO 09003KT 10SM CLR 35/23 A2987 RMK AO2 T03510226
KHHW 182215Z AUTO 12004KT 10SM SCT120 36/22 A2988 RMK AO2 T03560223
KHHW 182155Z AUTO 15004KT 10SM CLR 37/19 A2988 RMK AO2 T03710192
KHHW 182135Z AUTO 21005KT 10SM CLR 36/19 A2990 RMK AO2 T03640189
KHHW 182115Z AUTO 00000KT 10SM CLR 36/19 A2990 RMK AO2 T03610192
KHHW 182055Z AUTO 00000KT 10SM CLR 36/18 A2991 RMK AO2 T03600184
KHHW 182035Z AUTO 00000KT 10SM CLR 36/18 A2991 RMK AO2 T03590178
KHHW 182015Z AUTO 28004KT 10SM SCT120 36/18 A2992 RMK AO2 T03600176
KHHW 181955Z AUTO 21006KT 10SM CLR 37/17 A2992 RMK AO2 T03660173
KHHW 181935Z AUTO 00000KT 10SM CLR 37/19 A2992 RMK AO2 T03680185
KHHW 181915Z AUTO 20003KT 10SM CLR 36/19 A2993 RMK AO2 T03630191
KHHW 181855Z AUTO 23006KT 10SM CLR 36/20 A2993 RMK AO2 T03640197
KHHW 181835Z AUTO 00000KT 10SM SCT120 36/20 A2993 RMK AO2 T03630195
KHHW 181815Z AUTO 22003KT 10SM CLR 36/19 A2994 RMK AO2 T03590192
KHHW 181755Z AUTO 00000KT 10SM CLR 36/19 A2994 RMK AO2 T03550191 10355 20250
KHHW 181735Z AUTO 21005KT 10SM CLR 35/20 A2995 RMK AO2 T03480199
KHHW 181715Z AUTO 25004KT 10SM CLR 34/20 A2996 RMK AO2 T03420196
KHHW 181655Z AUTO 22006KT 10SM CLR 34/20 A2996 RMK AO2 T03440199
KHHW 181635Z AUTO 20005KT 10SM CLR 34/20 A2996 RMK AO2 T03350203
KHHW 181615Z AUTO 21008KT 10SM SCT120 33/20 A2996 RMK AO2 T03320202
KHHW 181555Z AUTO 19007KT 170V230 10SM BKN120 33/21 A2996 RMK AO2 T03250211
KHHW 181535Z AUTO 20008KT 10SM BKN120 31/21 A2996 RMK AO2 T03060211
KHHW 181515Z AUTO 20007KT 10SM OVC120 30/22 A2996 RMK AO2 T03010216
KHHW 181455Z AUTO 20007KT 10SM BKN120 29/22 A2997 RMK AO2 T02910217
KHHW 181435Z AUTO 20007KT 10SM SCT120 28/22 A2997 RMK AO2 T02820219
KHHW 181415Z AUTO 19006KT 10SM CLR 28/22 A2997 RMK AO2 T02750222
KHHW 181355Z AUTO 19007KT 10SM SCT120 27/22 A2997 RMK AO2 T02650223
KHHW 181335Z AUTO 18007KT 10SM SCT065 SCT075 BKN120 26/22 A2998 RMK AO2 LTG DSNT NE T02600220
KHHW 181315Z AUTO 19009KT 7SM -RA SCT070 BKN090 OVC110 25/22 A2998 RMK AO2 T02500223
KHHW 181255Z AUTO 18007KT 10SM -RA SCT070 BKN100 OVC120 25/23 A2998 RMK AO2 T02520225
KHHW 181235Z AUTO 00000KT 10SM SCT070 SCT090 OVC110 26/22 A2999 RMK AO2 T02550219
KHHW 181215Z AUTO 00000KT 10SM -RA SCT065 SCT080 OVC110 26/22 A2999 RMK AO2 T02600217
KHHW 181155Z AUTO 00000KT 10SM OVC110 27/21 A2998 RMK AO2 LTG DSNT NE T02650211 10291 20260
KHHW 181135Z AUTO 13003KT 10SM BKN120 26/21 A2997 RMK AO2 T02640211
KHHW 181115Z AUTO 13003KT 10SM BKN120 26/21 A2996 RMK AO2 T02630211
KHHW 181055Z AUTO 00000KT 10SM BKN110 26/21 A2996 RMK AO2 T02620211
KHHW 181035Z AUTO 00000KT 10SM SCT120 26/21 A2996 RMK AO2 T02610210
KHHW 181015Z AUTO 00000KT 10SM CLR 26/21 A2995 RMK AO2 T02620210
KHHW 180955Z AUTO 15003KT 10SM CLR 26/21 A2995 RMK AO2 T02620210
KHHW 180935Z AUTO 14003KT 10SM CLR 26/21 A2996 RMK AO2 T02630211
KHHW 180915Z AUTO 12005KT 10SM CLR 26/21 A2996 RMK AO2 T02640212